1997 DRENA (1997001S10176)


On this page: IBTrACS data - Map and Plots - Positions - Intensities - Original source data

Summary

Start Jan 1
End Jan 13
Basin SP
LMI 120 kt
Sources jtwc_sh
bom
nadi
wellington
neumann
In WMO? Yes
Previous storm 1997 RACHEL (SP)
Previous in basin 1997 RACHEL (SP)
Concurrent storms 1997 FERGUS (SP)
1997 PHIL (SP)
1997 FABRIOLA (SI)
1997 RACHEL (SP)
1997 DRENA (SP)
1997 HSK1897 (SI)
1997 EVAN (SP)
1997 HANNAH (WP)
1997 HELINDA (SI)
Next in basin 1997 EVAN (SP)
Next storm 1997 HSK1897 (SI)

top of page IBTrACS Data: File Access

top of page HURSAT Data: File Access

Image of storm

top of page Plots:

Map of storm track will not appear if FTP is down
Time series of cyclone Maximum Sustained Wind will not appear if FTP is down
Time series of cyclone Minimum Central Pressure will not appear if FTP is down

top of page Track Data:Position

jtwc_sh bom nadi wellington neumann
Date Lat Lon Lat Lon Lat Lon Lat Lon Lat Lon
1997-01-01 00:00:00 -10.3 175.5 -10.3 175.5
1997-01-01 06:00:00 -10.3 174.6 -10.3 174.6
1997-01-01 12:00:00 -10.4 173.7 -10.4 173.7
1997-01-01 18:00:00 -10.8 172.5 -10.8 172.5
1997-01-02 00:00:00 -11.3 171.2 -10.0 172.0 -10.0 172.0 -11.3 171.2
1997-01-02 06:00:00 -12.1 170.0 -11.0 171.0 -11.0 171.0 -12.1 170.0
1997-01-02 12:00:00 -12.8 168.8 -12.1 169.6 -12.1 169.6 -12.8 168.8
1997-01-02 18:00:00 -13.5 167.7 -13.3 168.0 -13.3 168.0 -13.5 167.7
1997-01-03 00:00:00 -14.1 166.5 -13.9 166.9 -13.9 166.9 -14.1 166.5
1997-01-03 06:00:00 -14.4 165.2 -14.3 165.6 -14.3 165.6 -14.4 165.2
1997-01-03 12:00:00 -14.6 164.1 -14.7 164.1 -14.7 164.1 -14.6 164.1
1997-01-03 18:00:00 -14.8 163.0 -15.1 162.5 -14.8 162.5 -14.8 162.5 -14.8 163.0
1997-01-04 00:00:00 -15.0 161.9 -14.8 161.5 -14.9 161.5 -14.9 161.5 -15.0 161.9
1997-01-04 06:00:00 -15.0 161.0 -15.2 160.7 -15.2 160.7 -15.2 160.7 -15.0 161.0
1997-01-04 12:00:00 -15.0 160.3 -15.6 160.2 -15.6 160.2 -15.6 160.2 -15.0 160.3
1997-01-04 18:00:00 -15.1 159.8 -15.3 159.6 -15.3 159.6 -15.3 159.6 -15.1 159.8
1997-01-05 00:00:00 -15.2 159.5 -15.2 159.5 -15.2 159.5 -15.2 159.5 -15.2 159.5
1997-01-05 06:00:00 -15.5 159.2 -15.6 159.2 -15.6 159.2 -15.6 159.2 -15.5 159.2
1997-01-05 12:00:00 -15.9 159.0 -15.8 158.9 -15.8 158.9 -15.8 158.9 -15.9 159.0
1997-01-05 18:00:00 -16.2 158.8 -16.1 158.5 -16.1 158.5 -16.1 158.5 -16.2 158.8
1997-01-06 00:00:00 -16.6 158.7 -16.5 158.6 -16.5 158.6 -16.5 158.6 -16.6 158.7
1997-01-06 06:00:00 -17.0 158.9 -17.0 158.7 -17.0 158.7 -17.0 158.7 -17.0 158.9
1997-01-06 12:00:00 -17.5 159.4 -17.4 159.4 -17.4 159.4 -17.4 159.4 -17.5 159.4
1997-01-06 18:00:00 -18.0 160.2 -17.9 160.1 -17.9 160.1 -17.9 160.1 -18.0 160.2
1997-01-07 00:00:00 -18.3 161.1 -18.1 161.0 -18.5 161.3 -18.5 161.3 -18.3 161.1
jtwc_sh bom nadi wellington neumann
1997-01-07 06:00:00 -19.0 162.0 -19.4 162.3 -19.4 162.4 -19.4 162.4 -19.0 162.0
1997-01-07 12:00:00 -20.0 163.2 -20.2 163.3 -20.1 163.3 -20.1 163.3 -20.0 163.2
1997-01-07 18:00:00 -21.1 164.3 -20.9 164.4 -20.9 164.2 -20.9 164.2 -21.1 164.3
1997-01-08 00:00:00 -21.9 165.2 -22.2 165.3 -22.0 165.3 -22.0 165.3 -21.9 165.2
1997-01-08 06:00:00 -22.7 166.1 -23.5 166.5 -23.4 166.6 -23.4 166.6 -22.7 166.1
1997-01-08 12:00:00 -24.0 167.0 -25.3 167.0 -24.9 167.3 -24.9 167.3 -24.0 167.0
1997-01-08 18:00:00 -25.5 167.6 -26.3 167.4 -25.5 167.0 -25.5 167.5 -25.5 167.6
1997-01-09 00:00:00 -27.3 167.9 -28.1 168.3 -26.5 167.6 -26.5 167.6 -27.3 167.9
1997-01-09 06:00:00 -28.9 168.4 -28.4 168.4 -28.4 168.4 -28.9 168.4
1997-01-09 12:00:00 -30.5 168.6 -30.0 169.0 -30.0 169.0 -30.5 168.6
1997-01-09 18:00:00 -32.1 169.0 -31.8 169.3 -31.8 169.3 -32.1 169.0
1997-01-10 00:00:00 -33.7 169.5 -33.5 169.8 -33.5 169.8 -33.7 169.5
1997-01-10 06:00:00 -35.3 170.3 -35.0 170.5 -35.0 170.5 -35.3 170.3
1997-01-10 12:00:00 -36.7 171.4 -36.5 171.2 -36.5 171.2 -36.7 171.4
1997-01-10 18:00:00 -38.2 172.7 -37.8 172.2 -37.8 172.2 -38.2 172.7
1997-01-11 00:00:00 -40.1 173.8 -39.0 173.5 -40.1 173.8
1997-01-11 06:00:00 -42.4 174.6 -42.1 174.7 -42.4 174.6
1997-01-11 12:00:00 -45.1 175.4 -45.5 175.5 -45.1 175.4
1997-01-11 18:00:00 -47.0 176.0
1997-01-12 00:00:00 -48.5 177.0
1997-01-12 06:00:00 -49.2 177.8
1997-01-12 12:00:00 -49.5 178.5
1997-01-12 18:00:00 -49.8 179.2
1997-01-13 00:00:00 -50.5 180.5
jtwc_sh bom nadi wellington neumann
1997-01-13 06:00:00 -52.0 183.0
1997-01-13 12:00:00 -53.0 186.0

top of pageTrack Data:Intensity

jtwc_sh bom nadi wellington neumann
Date Wind Pres Wind Pres Wind Pres Wind Pres Wind Pres
1997-01-01 00:00:00 15. 15.
1997-01-01 06:00:00 20. 20.
1997-01-01 12:00:00 20. 20.
1997-01-01 18:00:00 20. 20.
1997-01-02 00:00:00 25. 15. 1004. 15. 1004. 25.
1997-01-02 06:00:00 25. 20. 1002. 20. 1002. 25.
1997-01-02 12:00:00 30. 25. 1000. 25. 1000. 30.
1997-01-02 18:00:00 35. 25. 999. 25. 999. 35.
1997-01-03 00:00:00 35. 25. 998. 25. 998. 35.
1997-01-03 06:00:00 35. 30. 997. 30. 997. 35.
1997-01-03 12:00:00 40. 35. 995. 35. 995. 40.
1997-01-03 18:00:00 50. 41. 990. 40. 990. 40. 990. 50.
1997-01-04 00:00:00 60. 51. 980. 55. 980. 55. 980. 60.
1997-01-04 06:00:00 70. 60. 975. 60. 975. 60. 975. 70.
1997-01-04 12:00:00 80. 60. 970. 65. 970. 65. 970. 80.
1997-01-04 18:00:00 90. 60. 965. 70. 965. 70. 965. 90.
1997-01-05 00:00:00 105. 60. 955. 80. 955. 80. 955. 105.
1997-01-05 06:00:00 120. 91. 945. 85. 945. 85. 945. 120.
1997-01-05 12:00:00 120. 91. 945. 85. 945. 85. 945. 120.
1997-01-05 18:00:00 120. 91. 940. 90. 940. 90. 940. 120.
1997-01-06 00:00:00 120. 91. 935. 90. 935. 90. 935. 120.
1997-01-06 06:00:00 115. 91. 935. 90. 935. 90. 935. 115.
1997-01-06 12:00:00 110. 86. 940. 90. 940. 90. 940. 110.
1997-01-06 18:00:00 105. 86. 945. 85. 945. 85. 945. 105.
1997-01-07 00:00:00 105. 86. 945. 85. 945. 85. 945. 105.
jtwc_sh bom nadi wellington neumann
1997-01-07 06:00:00 100. 86. 945. 85. 945. 85. 945. 100.
1997-01-07 12:00:00 100. 86. 945. 85. 945. 85. 945. 100.
1997-01-07 18:00:00 95. 82. 950. 80. 950. 80. 950. 95.
1997-01-08 00:00:00 90. 82. 950. 80. 955. 80. 955. 90.
1997-01-08 06:00:00 80. 82. 960. 75. 960. 75. 960. 80.
1997-01-08 12:00:00 70. 76. 970. 65. 970. 65. 970. 70.
1997-01-08 18:00:00 65. 76. 970. 65. 970. 65. 970. 65.
1997-01-09 00:00:00 60. 70. 970. 65. 970. 65. 970. 60.
1997-01-09 06:00:00 55. 60. 975. 60. 975. 55.
1997-01-09 12:00:00 55. 55. 980. 55. 980. 55.
1997-01-09 18:00:00 55. 55. 982. 55. 982. 55.
1997-01-10 00:00:00 50. 50. 984. 50. 984. 50.
1997-01-10 06:00:00 50. 45. 985. 45. 985. 50.
1997-01-10 12:00:00 45. 40. 986. 40. 986. 45.
1997-01-10 18:00:00 45. 40. 986. 40. 986. 45.
1997-01-11 00:00:00 40. 40. 986. 40.
1997-01-11 06:00:00 40. 40. 985. 40.
1997-01-11 12:00:00 40. 40. 984. 40.
1997-01-11 18:00:00 40. 981.
1997-01-12 00:00:00 40. 983.
1997-01-12 06:00:00 40. 983.
1997-01-12 12:00:00 35. 986.
1997-01-12 18:00:00 35. 986.
1997-01-13 00:00:00 30. 993.
jtwc_sh bom nadi wellington neumann
1997-01-13 06:00:00 25. 994.
1997-01-13 12:00:00 20. 1001.

top of page Links to source data

Source Source file Format
jtwc_sh bsh161997.txt ATCF
bom Newcyclonedatabase-08repair.csv:Line=18132:DRENA CSV file (from Excel file)
nadi RSMC-Nadi-1996-97-BT-Data.txt:Line=63:DRENA Text table
wellington TC_BT_1967_2006.csv:Line=5190:DRENA Text table
neumann tracks.sh:Storm=1080:DRENA:BSH161997:JTWC&NZeal19052 HURDAT